sensor_id;sensor_type;location;lat;lon;timestamp;pressure;altitude;pressure_sealevel;temperature;humidity
9439;BME280;5176;42.622;25.386;2023-04-06T00:00:51;96821.50;;;6.47;98.76
9439;BME280;5176;42.622;25.386;2023-04-06T00:03:20;96815.63;;;6.43;98.33
9439;BME280;5176;42.622;25.386;2023-04-06T00:05:49;96814.38;;;6.50;97.76
9439;BME280;5176;42.622;25.386;2023-04-06T00:08:20;96814.19;;;6.53;96.78
9439;BME280;5176;42.622;25.386;2023-04-06T00:10:50;96806.47;;;6.52;95.89
9439;BME280;5176;42.622;25.386;2023-04-06T00:13:19;96785.03;;;6.31;96.62
9439;BME280;5176;42.622;25.386;2023-04-06T00:15:47;96805.13;;;6.45;96.91
9439;BME280;5176;42.622;25.386;2023-04-06T00:18:16;96799.72;;;6.32;96.87
9439;BME280;5176;42.622;25.386;2023-04-06T00:20:45;96792.34;;;6.24;97.09
9439;BME280;5176;42.622;25.386;2023-04-06T00:23:13;96797.38;;;6.27;97.66
9439;BME280;5176;42.622;25.386;2023-04-06T00:25:44;96796.19;;;6.33;97.55
9439;BME280;5176;42.622;25.386;2023-04-06T00:28:12;96788.91;;;6.40;96.66
9439;BME280;5176;42.622;25.386;2023-04-06T00:30:42;96790.00;;;6.51;96.28
9439;BME280;5176;42.622;25.386;2023-04-06T00:33:11;96764.47;;;6.26;95.20
9439;BME280;5176;42.622;25.386;2023-04-06T00:35:40;96772.78;;;6.17;94.82
9439;BME280;5176;42.622;25.386;2023-04-06T00:38:08;96791.91;;;6.16;95.62
9439;BME280;5176;42.622;25.386;2023-04-06T00:40:37;96785.53;;;6.22;96.59
9439;BME280;5176;42.622;25.386;2023-04-06T00:43:08;96765.19;;;6.13;95.35
9439;BME280;5176;42.622;25.386;2023-04-06T00:45:38;96771.34;;;6.27;95.25
9439;BME280;5176;42.622;25.386;2023-04-06T00:48:07;96771.78;;;6.36;95.31
9439;BME280;5176;42.622;25.386;2023-04-06T00:50:36;96769.00;;;6.39;94.88
9439;BME280;5176;42.622;25.386;2023-04-06T00:53:05;96764.41;;;6.44;93.60
9439;BME280;5176;42.622;25.386;2023-04-06T00:55:34;96762.72;;;6.43;93.17
9439;BME280;5176;42.622;25.386;2023-04-06T00:58:04;96767.31;;;6.38;94.02
9439;BME280;5176;42.622;25.386;2023-04-06T01:00:35;96766.97;;;6.28;93.72
9439;BME280;5176;42.622;25.386;2023-04-06T01:03:04;96771.16;;;6.15;93.08
9439;BME280;5176;42.622;25.386;2023-04-06T01:05:34;96763.00;;;6.05;93.65
9439;BME280;5176;42.622;25.386;2023-04-06T01:08:07;96764.53;;;6.09;94.57
9439;BME280;5176;42.622;25.386;2023-04-06T01:10:36;96767.91;;;6.11;95.61
9439;BME280;5176;42.622;25.386;2023-04-06T01:13:04;96763.09;;;6.04;94.74
9439;BME280;5176;42.622;25.386;2023-04-06T01:15:35;96766.63;;;6.03;94.92
9439;BME280;5176;42.622;25.386;2023-04-06T01:18:06;96759.72;;;6.01;94.93
9439;BME280;5176;42.622;25.386;2023-04-06T01:20:37;96761.44;;;6.03;94.66
9439;BME280;5176;42.622;25.386;2023-04-06T01:23:07;96750.09;;;6.04;95.89
9439;BME280;5176;42.622;25.386;2023-04-06T01:25:36;96744.88;;;6.04;94.80
9439;BME280;5176;42.622;25.386;2023-04-06T01:28:05;96736.38;;;6.00;95.64
9439;BME280;5176;42.622;25.386;2023-04-06T01:30:34;96734.56;;;6.02;93.46
9439;BME280;5176;42.622;25.386;2023-04-06T01:33:03;96740.66;;;6.01;93.94
9439;BME280;5176;42.622;25.386;2023-04-06T01:35:32;96742.94;;;5.91;93.38
9439;BME280;5176;42.622;25.386;2023-04-06T01:38:00;96738.78;;;5.87;94.49
9439;BME280;5176;42.622;25.386;2023-04-06T01:40:30;96659.16;;;5.36;94.96
9439;BME280;5176;42.622;25.386;2023-04-06T01:42:59;96736.03;;;5.90;95.17
9439;BME280;5176;42.622;25.386;2023-04-06T01:45:28;96738.03;;;5.85;94.98
9439;BME280;5176;42.622;25.386;2023-04-06T01:47:57;96727.72;;;5.84;93.93
9439;BME280;5176;42.622;25.386;2023-04-06T01:50:25;96733.38;;;5.74;96.04
9439;BME280;5176;42.622;25.386;2023-04-06T01:52:55;96734.91;;;5.79;95.66
9439;BME280;5176;42.622;25.386;2023-04-06T01:55:23;96736.81;;;5.75;96.31
9439;BME280;5176;42.622;25.386;2023-04-06T01:57:53;96738.19;;;5.82;95.45
9439;BME280;5176;42.622;25.386;2023-04-06T02:00:22;96741.97;;;5.77;95.81
9439;BME280;5176;42.622;25.386;2023-04-06T02:02:51;96740.34;;;5.74;95.75
9439;BME280;5176;42.622;25.386;2023-04-06T02:05:20;96737.75;;;5.74;96.81
9439;BME280;5176;42.622;25.386;2023-04-06T02:07:48;96703.63;;;5.47;97.78
9439;BME280;5176;42.622;25.386;2023-04-06T02:10:18;96722.28;;;5.55;97.47
9439;BME280;5176;42.622;25.386;2023-04-06T02:12:47;96742.72;;;5.61;97.54
9439;BME280;5176;42.622;25.386;2023-04-06T02:15:17;96748.19;;;5.57;97.80
9439;BME280;5176;42.622;25.386;2023-04-06T02:17:46;96741.53;;;5.51;99.56
9439;BME280;5176;42.622;25.386;2023-04-06T02:20:15;96724.72;;;5.41;99.24
9439;BME280;5176;42.622;25.386;2023-04-06T02:22:44;96744.75;;;5.56;99.56
9439;BME280;5176;42.622;25.386;2023-04-06T02:25:13;96744.50;;;5.61;99.68
9439;BME280;5176;42.622;25.386;2023-04-06T02:27:41;96740.91;;;5.63;100.00
9439;BME280;5176;42.622;25.386;2023-04-06T02:30:11;96745.09;;;5.66;99.75
9439;BME280;5176;42.622;25.386;2023-04-06T02:32:41;96745.03;;;5.67;99.53
9439;BME280;5176;42.622;25.386;2023-04-06T02:35:09;96750.41;;;5.64;99.54
9439;BME280;5176;42.622;25.386;2023-04-06T02:37:38;96746.84;;;5.50;99.60
9439;BME280;5176;42.622;25.386;2023-04-06T02:40:08;96741.47;;;5.53;100.00
9439;BME280;5176;42.622;25.386;2023-04-06T02:42:37;96749.25;;;5.53;100.00
9439;BME280;5176;42.622;25.386;2023-04-06T02:45:06;96727.09;;;5.45;100.00
9439;BME280;5176;42.622;25.386;2023-04-06T02:47:35;96748.72;;;5.63;98.72
9439;BME280;5176;42.622;25.386;2023-04-06T02:50:06;96753.84;;;5.65;99.12
9439;BME280;5176;42.622;25.386;2023-04-06T02:52:34;96742.22;;;5.55;99.91
9439;BME280;5176;42.622;25.386;2023-04-06T02:55:04;96741.84;;;5.62;100.00
9439;BME280;5176;42.622;25.386;2023-04-06T02:57:34;96741.06;;;5.60;99.80
9439;BME280;5176;42.622;25.386;2023-04-06T03:00:04;96742.59;;;5.64;99.98
9439;BME280;5176;42.622;25.386;2023-04-06T03:02:33;96748.41;;;5.69;98.29
9439;BME280;5176;42.622;25.386;2023-04-06T03:05:02;96750.75;;;5.74;99.39
9439;BME280;5176;42.622;25.386;2023-04-06T03:07:33;96746.00;;;5.82;100.00
9439;BME280;5176;42.622;25.386;2023-04-06T03:10:02;96732.72;;;5.71;99.10
9439;BME280;5176;42.622;25.386;2023-04-06T03:12:30;96748.59;;;5.82;99.67
9439;BME280;5176;42.622;25.386;2023-04-06T03:14:59;96755.47;;;5.83;98.38
9439;BME280;5176;42.622;25.386;2023-04-06T03:17:28;96753.03;;;5.80;97.31
9439;BME280;5176;42.622;25.386;2023-04-06T03:19:57;96749.81;;;5.75;92.83
9439;BME280;5176;42.622;25.386;2023-04-06T03:22:25;96761.94;;;5.76;91.97
9439;BME280;5176;42.622;25.386;2023-04-06T03:24:56;96754.34;;;5.71;91.86
9439;BME280;5176;42.622;25.386;2023-04-06T03:27:25;96749.31;;;5.68;92.49
9439;BME280;5176;42.622;25.386;2023-04-06T03:29:53;96751.75;;;5.71;90.96
9439;BME280;5176;42.622;25.386;2023-04-06T03:32:22;96752.34;;;5.77;89.76
9439;BME280;5176;42.622;25.386;2023-04-06T03:34:51;96758.53;;;5.74;89.93
9439;BME280;5176;42.622;25.386;2023-04-06T03:37:20;96756.03;;;5.72;89.51
9439;BME280;5176;42.622;25.386;2023-04-06T03:39:49;96737.72;;;5.58;88.93
9439;BME280;5176;42.622;25.386;2023-04-06T03:42:19;96756.94;;;5.71;89.81
9439;BME280;5176;42.622;25.386;2023-04-06T03:44:48;96768.28;;;5.70;90.88
9439;BME280;5176;42.622;25.386;2023-04-06T03:47:17;96759.88;;;5.65;90.69
9439;BME280;5176;42.622;25.386;2023-04-06T03:49:46;96719.31;;;5.28;90.83
9439;BME280;5176;42.622;25.386;2023-04-06T03:52:15;96757.16;;;5.51;91.07
9439;BME280;5176;42.622;25.386;2023-04-06T03:54:45;96756.75;;;5.41;92.00
9439;BME280;5176;42.622;25.386;2023-04-06T03:57:14;96740.19;;;5.27;93.42
9439;BME280;5176;42.622;25.386;2023-04-06T03:59:44;96751.63;;;5.40;93.06
9439;BME280;5176;42.622;25.386;2023-04-06T04:02:14;96760.28;;;5.40;92.60
9439;BME280;5176;42.622;25.386;2023-04-06T04:04:42;96762.03;;;5.40;93.14
9439;BME280;5176;42.622;25.386;2023-04-06T04:07:11;96758.50;;;5.41;96.07
9439;BME280;5176;42.622;25.386;2023-04-06T04:09:40;96762.66;;;5.45;94.70
9439;BME280;5176;42.622;25.386;2023-04-06T04:12:09;96759.31;;;5.43;93.60
9439;BME280;5176;42.622;25.386;2023-04-06T04:14:39;96764.41;;;5.44;91.18
9439;BME280;5176;42.622;25.386;2023-04-06T04:17:09;96754.94;;;5.43;92.47
9439;BME280;5176;42.622;25.386;2023-04-06T04:19:37;96757.16;;;5.51;92.63
9439;BME280;5176;42.622;25.386;2023-04-06T04:22:06;96756.97;;;5.54;92.84
9439;BME280;5176;42.622;25.386;2023-04-06T04:24:35;96751.63;;;5.57;93.79
9439;BME280;5176;42.622;25.386;2023-04-06T04:27:05;96755.28;;;5.53;92.69
9439;BME280;5176;42.622;25.386;2023-04-06T04:29:34;96759.50;;;5.56;93.18
9439;BME280;5176;42.622;25.386;2023-04-06T04:32:03;96765.78;;;5.52;93.50
9439;BME280;5176;42.622;25.386;2023-04-06T04:34:33;96756.53;;;5.46;94.17
9439;BME280;5176;42.622;25.386;2023-04-06T04:37:02;96762.47;;;5.48;94.21
9439;BME280;5176;42.622;25.386;2023-04-06T04:39:31;96759.00;;;5.49;92.47
9439;BME280;5176;42.622;25.386;2023-04-06T04:42:00;96762.25;;;5.53;91.26
9439;BME280;5176;42.622;25.386;2023-04-06T04:44:29;96759.44;;;5.57;90.18
9439;BME280;5176;42.622;25.386;2023-04-06T04:46:58;96730.72;;;5.43;89.78
9439;BME280;5176;42.622;25.386;2023-04-06T04:49:27;96764.97;;;5.67;90.66
9439;BME280;5176;42.622;25.386;2023-04-06T04:51:58;96768.59;;;5.64;88.92
9439;BME280;5176;42.622;25.386;2023-04-06T04:54:26;96764.16;;;5.66;89.19
9439;BME280;5176;42.622;25.386;2023-04-06T04:56:55;96763.81;;;5.72;89.84
9439;BME280;5176;42.622;25.386;2023-04-06T04:59:24;96768.03;;;5.75;89.33
9439;BME280;5176;42.622;25.386;2023-04-06T05:01:53;96771.16;;;5.82;90.13
9439;BME280;5176;42.622;25.386;2023-04-06T05:04:22;96766.13;;;5.79;89.52
9439;BME280;5176;42.622;25.386;2023-04-06T05:06:51;96770.91;;;5.86;91.25
9439;BME280;5176;42.622;25.386;2023-04-06T05:09:32;96766.19;;;5.77;92.17
9439;BME280;5176;42.622;25.386;2023-04-06T05:12:02;96683.31;;;5.20;92.44
9439;BME280;5176;42.622;25.386;2023-04-06T05:14:31;96750.53;;;5.61;91.44
9439;BME280;5176;42.622;25.386;2023-04-06T05:17:00;96762.03;;;5.57;92.15
9439;BME280;5176;42.622;25.386;2023-04-06T05:19:29;96771.84;;;5.68;93.57
9439;BME280;5176;42.622;25.386;2023-04-06T05:21:58;96766.13;;;5.61;92.81
9439;BME280;5176;42.622;25.386;2023-04-06T05:24:27;96770.44;;;5.62;92.88
9439;BME280;5176;42.622;25.386;2023-04-06T05:26:58;96764.16;;;5.66;92.82
9439;BME280;5176;42.622;25.386;2023-04-06T05:29:27;96767.34;;;5.71;92.45
9439;BME280;5176;42.622;25.386;2023-04-06T05:31:56;96764.97;;;5.67;92.22
9439;BME280;5176;42.622;25.386;2023-04-06T05:34:25;96759.88;;;5.65;91.28
9439;BME280;5176;42.622;25.386;2023-04-06T05:36:54;96737.78;;;5.57;91.97
9439;BME280;5176;42.622;25.386;2023-04-06T05:39:23;96761.84;;;5.78;92.04
9439;BME280;5176;42.622;25.386;2023-04-06T05:41:51;96737.69;;;5.76;89.62
9439;BME280;5176;42.622;25.386;2023-04-06T05:44:22;96761.66;;;5.98;90.13
9439;BME280;5176;42.622;25.386;2023-04-06T05:46:51;96754.66;;;6.16;89.38
9439;BME280;5176;42.622;25.386;2023-04-06T05:49:20;96751.84;;;6.35;88.25
9439;BME280;5176;42.622;25.386;2023-04-06T05:51:49;96738.75;;;6.52;86.32
9439;BME280;5176;42.622;25.386;2023-04-06T05:54:17;96743.59;;;6.74;84.49
9439;BME280;5176;42.622;25.386;2023-04-06T05:56:46;96739.13;;;6.92;82.25
9439;BME280;5176;42.622;25.386;2023-04-06T05:59:15;96740.44;;;6.99;73.89
9439;BME280;5176;42.622;25.386;2023-04-06T06:01:45;96742.53;;;7.08;73.98
9439;BME280;5176;42.622;25.386;2023-04-06T06:04:14;96732.31;;;7.19;76.34
9439;BME280;5176;42.622;25.386;2023-04-06T06:06:43;96731.16;;;7.39;73.13
9439;BME280;5176;42.622;25.386;2023-04-06T06:09:12;96730.13;;;7.42;71.29
9439;BME280;5176;42.622;25.386;2023-04-06T06:11:41;96725.84;;;7.41;71.52
9439;BME280;5176;42.622;25.386;2023-04-06T06:14:09;96727.34;;;7.59;70.85
9439;BME280;5176;42.622;25.386;2023-04-06T06:16:38;96732.31;;;7.78;69.25
9439;BME280;5176;42.622;25.386;2023-04-06T06:19:09;96722.59;;;7.94;69.50
9439;BME280;5176;42.622;25.386;2023-04-06T06:21:37;96716.34;;;8.11;69.74
9439;BME280;5176;42.622;25.386;2023-04-06T06:24:07;96695.94;;;8.17;67.55
9439;BME280;5176;42.622;25.386;2023-04-06T06:26:36;96726.28;;;8.47;67.01
9439;BME280;5176;42.622;25.386;2023-04-06T06:29:06;96720.00;;;8.64;67.01
9439;BME280;5176;42.622;25.386;2023-04-06T06:31:35;96725.00;;;8.94;64.16
9439;BME280;5176;42.622;25.386;2023-04-06T06:34:04;96731.59;;;8.99;62.76
9439;BME280;5176;42.622;25.386;2023-04-06T06:36:35;96723.47;;;9.04;59.55
9439;BME280;5176;42.622;25.386;2023-04-06T06:39:03;96721.00;;;9.28;58.46
9439;BME280;5176;42.622;25.386;2023-04-06T06:41:32;96732.59;;;9.11;58.05
9439;BME280;5176;42.622;25.386;2023-04-06T06:44:01;96724.91;;;8.95;58.08
9439;BME280;5176;42.622;25.386;2023-04-06T06:46:30;96730.09;;;9.10;59.55
9439;BME280;5176;42.622;25.386;2023-04-06T06:48:59;96722.88;;;9.26;58.36
9439;BME280;5176;42.622;25.386;2023-04-06T06:51:28;96732.31;;;9.54;57.88
9439;BME280;5176;42.622;25.386;2023-04-06T06:53:58;96736.50;;;9.82;57.96
9439;BME280;5176;42.622;25.386;2023-04-06T06:56:27;96732.75;;;9.73;56.58
9439;BME280;5176;42.622;25.386;2023-04-06T06:58:56;96729.69;;;10.05;55.10
9439;BME280;5176;42.622;25.386;2023-04-06T07:01:25;96728.34;;;10.25;55.93
9439;BME280;5176;42.622;25.386;2023-04-06T07:03:54;96734.66;;;10.46;54.86
9439;BME280;5176;42.622;25.386;2023-04-06T07:06:22;96733.44;;;10.63;52.49
9439;BME280;5176;42.622;25.386;2023-04-06T07:08:51;96727.69;;;10.71;53.29
9439;BME280;5176;42.622;25.386;2023-04-06T07:11:22;96721.06;;;10.89;52.16
9439;BME280;5176;42.622;25.386;2023-04-06T07:13:51;96725.69;;;11.09;51.86
9439;BME280;5176;42.622;25.386;2023-04-06T07:16:20;96721.28;;;11.10;50.52
9439;BME280;5176;42.622;25.386;2023-04-06T07:18:49;96712.63;;;11.21;51.09
9439;BME280;5176;42.622;25.386;2023-04-06T07:21:18;96722.53;;;11.17;50.76
9439;BME280;5176;42.622;25.386;2023-04-06T07:23:46;96719.63;;;10.61;50.10
9439;BME280;5176;42.622;25.386;2023-04-06T07:26:17;96707.63;;;10.70;50.83
9439;BME280;5176;42.622;25.386;2023-04-06T07:28:49;96730.91;;;10.74;47.20
9439;BME280;5176;42.622;25.386;2023-04-06T07:31:18;96729.94;;;10.75;46.11
9439;BME280;5176;42.622;25.386;2023-04-06T07:33:47;96732.13;;;10.81;45.99
9439;BME280;5176;42.622;25.386;2023-04-06T07:36:16;96731.69;;;11.23;46.94
9439;BME280;5176;42.622;25.386;2023-04-06T07:38:46;96725.69;;;11.56;44.77
9439;BME280;5176;42.622;25.386;2023-04-06T07:41:16;96728.25;;;11.57;45.01
9439;BME280;5176;42.622;25.386;2023-04-06T07:43:45;96727.91;;;11.27;44.16
9439;BME280;5176;42.622;25.386;2023-04-06T07:46:15;96726.66;;;11.55;44.83
9439;BME280;5176;42.622;25.386;2023-04-06T07:48:44;96730.31;;;11.87;44.35
9439;BME280;5176;42.622;25.386;2023-04-06T07:51:13;96720.31;;;12.15;44.90
9439;BME280;5176;42.622;25.386;2023-04-06T07:53:44;96727.09;;;12.28;44.47
9439;BME280;5176;42.622;25.386;2023-04-06T07:56:13;96729.50;;;12.32;44.66
9439;BME280;5176;42.622;25.386;2023-04-06T07:58:42;96729.47;;;12.43;44.17
9439;BME280;5176;42.622;25.386;2023-04-06T08:01:11;96725.22;;;12.19;43.98
9439;BME280;5176;42.622;25.386;2023-04-06T08:03:41;96721.88;;;12.06;45.70
9439;BME280;5176;42.622;25.386;2023-04-06T08:06:10;96724.72;;;12.14;46.48
9439;BME280;5176;42.622;25.386;2023-04-06T08:08:40;96726.78;;;12.11;46.26
9439;BME280;5176;42.622;25.386;2023-04-06T08:11:09;96732.84;;;12.11;43.87
9439;BME280;5176;42.622;25.386;2023-04-06T08:13:38;96727.22;;;11.93;44.38
9439;BME280;5176;42.622;25.386;2023-04-06T08:16:07;96731.16;;;12.10;43.91
9439;BME280;5176;42.622;25.386;2023-04-06T08:18:36;96691.53;;;11.91;44.27
9439;BME280;5176;42.622;25.386;2023-04-06T08:21:06;96724.72;;;11.92;45.14
9439;BME280;5176;42.622;25.386;2023-04-06T08:23:34;96725.66;;;12.02;44.02
9439;BME280;5176;42.622;25.386;2023-04-06T08:26:03;96718.53;;;12.04;44.47
9439;BME280;5176;42.622;25.386;2023-04-06T08:28:32;96724.00;;;12.35;44.22
9439;BME280;5176;42.622;25.386;2023-04-06T08:31:04;96728.97;;;12.71;43.06
9439;BME280;5176;42.622;25.386;2023-04-06T08:33:33;96724.03;;;13.21;43.48
9439;BME280;5176;42.622;25.386;2023-04-06T08:36:11;96731.44;;;13.48;41.58
9439;BME280;5176;42.622;25.386;2023-04-06T08:38:41;96718.97;;;13.50;41.91
9439;BME280;5176;42.622;25.386;2023-04-06T08:41:12;96722.16;;;13.75;41.86
9439;BME280;5176;42.622;25.386;2023-04-06T08:43:43;96719.06;;;13.90;42.56
9439;BME280;5176;42.622;25.386;2023-04-06T08:46:13;96719.44;;;14.07;41.77
9439;BME280;5176;42.622;25.386;2023-04-06T08:48:42;96721.69;;;13.90;41.57
9439;BME280;5176;42.622;25.386;2023-04-06T08:51:13;96720.03;;;13.89;41.76
9439;BME280;5176;42.622;25.386;2023-04-06T08:53:41;96716.03;;;13.95;42.04
9439;BME280;5176;42.622;25.386;2023-04-06T08:56:10;96716.19;;;13.94;41.17
9439;BME280;5176;42.622;25.386;2023-04-06T08:58:41;96714.28;;;13.75;40.31
9439;BME280;5176;42.622;25.386;2023-04-06T09:01:12;96713.97;;;13.47;40.67
9439;BME280;5176;42.622;25.386;2023-04-06T09:03:44;96690.56;;;13.12;42.17
9439;BME280;5176;42.622;25.386;2023-04-06T09:06:16;96709.50;;;12.95;42.38
9439;BME280;5176;42.622;25.386;2023-04-06T09:08:45;96707.50;;;12.87;43.34
9439;BME280;5176;42.622;25.386;2023-04-06T09:11:15;96702.25;;;12.87;43.54
9439;BME280;5176;42.622;25.386;2023-04-06T09:13:47;96700.00;;;13.03;43.89
9439;BME280;5176;42.622;25.386;2023-04-06T09:16:16;96701.03;;;12.91;42.62
9439;BME280;5176;42.622;25.386;2023-04-06T09:18:46;96701.44;;;12.75;42.76
9439;BME280;5176;42.622;25.386;2023-04-06T09:21:18;96694.72;;;12.28;43.88
9439;BME280;5176;42.622;25.386;2023-04-06T09:23:47;96672.78;;;12.07;44.07
9439;BME280;5176;42.622;25.386;2023-04-06T09:26:17;96690.91;;;12.10;44.86
9439;BME280;5176;42.622;25.386;2023-04-06T09:28:48;96687.19;;;12.35;44.69
9439;BME280;5176;42.622;25.386;2023-04-06T09:31:21;96688.00;;;12.58;44.12
9439;BME280;5176;42.622;25.386;2023-04-06T09:33:50;96687.47;;;12.75;44.57
9439;BME280;5176;42.622;25.386;2023-04-06T09:36:30;96688.25;;;12.87;43.46
9439;BME280;5176;42.622;25.386;2023-04-06T09:39:00;96690.03;;;12.97;43.51
9439;BME280;5176;42.622;25.386;2023-04-06T09:41:30;96682.94;;;12.66;42.15
9439;BME280;5176;42.622;25.386;2023-04-06T09:44:08;96683.81;;;12.55;42.71
9439;BME280;5176;42.622;25.386;2023-04-06T09:46:41;96679.16;;;12.47;43.94
9439;BME280;5176;42.622;25.386;2023-04-06T09:49:11;96654.06;;;12.43;44.61
9439;BME280;5176;42.622;25.386;2023-04-06T09:51:46;96672.13;;;12.48;43.88
9439;BME280;5176;42.622;25.386;2023-04-06T09:54:18;96677.59;;;12.56;44.60
9439;BME280;5176;42.622;25.386;2023-04-06T09:56:50;96682.69;;;12.25;44.10
9439;BME280;5176;42.622;25.386;2023-04-06T09:59:26;96675.66;;;11.92;45.49
9439;BME280;5176;42.622;25.386;2023-04-06T10:01:59;96673.88;;;12.04;46.08
9439;BME280;5176;42.622;25.386;2023-04-06T10:04:36;96668.09;;;12.21;46.84
9439;BME280;5176;42.622;25.386;2023-04-06T10:07:09;96671.91;;;12.40;47.26
9439;BME280;5176;42.622;25.386;2023-04-06T10:09:40;96672.13;;;12.48;44.61
9439;BME280;5176;42.622;25.386;2023-04-06T10:12:09;96674.47;;;12.62;44.35
9439;BME280;5176;42.622;25.386;2023-04-06T10:14:39;96670.59;;;12.34;44.76
9439;BME280;5176;42.622;25.386;2023-04-06T10:17:08;96667.28;;;11.87;44.88
9439;BME280;5176;42.622;25.386;2023-04-06T10:19:44;96665.00;;;11.60;47.04
9439;BME280;5176;42.622;25.386;2023-04-06T10:22:22;96669.09;;;11.87;46.34
9439;BME280;5176;42.622;25.386;2023-04-06T10:24:52;96672.66;;;12.19;46.04
9439;BME280;5176;42.622;25.386;2023-04-06T10:27:27;96671.19;;;12.38;45.20
9439;BME280;5176;42.622;25.386;2023-04-06T10:30:02;96668.28;;;12.52;45.70
9439;BME280;5176;42.622;25.386;2023-04-06T10:32:33;96665.50;;;12.65;44.58
9439;BME280;5176;42.622;25.386;2023-04-06T10:35:11;96671.50;;;12.55;45.27
9439;BME280;5176;42.622;25.386;2023-04-06T10:37:50;96672.00;;;12.81;45.06
9439;BME280;5176;42.622;25.386;2023-04-06T10:40:25;96672.09;;;13.23;46.06
9439;BME280;5176;42.622;25.386;2023-04-06T10:42:55;96665.16;;;13.43;44.23
9439;BME280;5176;42.622;25.386;2023-04-06T10:45:25;96646.19;;;13.49;43.86
9439;BME280;5176;42.622;25.386;2023-04-06T10:47:54;96633.66;;;13.62;44.25
9439;BME280;5176;42.622;25.386;2023-04-06T10:50:23;96652.50;;;13.88;43.94
9439;BME280;5176;42.622;25.386;2023-04-06T10:53:03;96653.69;;;14.05;42.64
9439;BME280;5176;42.622;25.386;2023-04-06T10:55:32;96650.47;;;14.02;44.02
9439;BME280;5176;42.622;25.386;2023-04-06T10:58:01;96652.03;;;13.74;42.45
9439;BME280;5176;42.622;25.386;2023-04-06T11:00:29;96656.31;;;13.44;43.42
9439;BME280;5176;42.622;25.386;2023-04-06T11:02:59;96644.25;;;13.21;43.52
9439;BME280;5176;42.622;25.386;2023-04-06T11:05:28;96649.75;;;13.18;43.79
9439;BME280;5176;42.622;25.386;2023-04-06T11:07:58;96648.81;;;13.07;43.73
9439;BME280;5176;42.622;25.386;2023-04-06T11:10:29;96647.94;;;12.97;44.27
9439;BME280;5176;42.622;25.386;2023-04-06T11:12:58;96646.22;;;12.75;44.81
9439;BME280;5176;42.622;25.386;2023-04-06T11:15:34;96645.06;;;12.89;43.54
9439;BME280;5176;42.622;25.386;2023-04-06T11:18:04;96636.31;;;13.00;44.32
9439;BME280;5176;42.622;25.386;2023-04-06T11:20:33;96650.16;;;13.02;44.11
9439;BME280;5176;42.622;25.386;2023-04-06T11:23:02;96652.22;;;12.66;44.59
9439;BME280;5176;42.622;25.386;2023-04-06T11:25:32;96639.06;;;12.77;43.72
9439;BME280;5176;42.622;25.386;2023-04-06T11:28:02;96638.19;;;12.77;43.84
9439;BME280;5176;42.622;25.386;2023-04-06T11:30:31;96625.81;;;12.68;44.66
9439;BME280;5176;42.622;25.386;2023-04-06T11:33:01;96639.59;;;12.92;44.22
9439;BME280;5176;42.622;25.386;2023-04-06T11:35:31;96633.03;;;13.07;44.73
9439;BME280;5176;42.622;25.386;2023-04-06T11:38:03;96630.72;;;12.93;43.64
9439;BME280;5176;42.622;25.386;2023-04-06T11:40:35;96633.94;;;13.18;45.72
9439;BME280;5176;42.622;25.386;2023-04-06T11:43:04;96626.25;;;13.47;43.08
9439;BME280;5176;42.622;25.386;2023-04-06T11:45:39;96627.69;;;13.60;42.69
9439;BME280;5176;42.622;25.386;2023-04-06T11:48:18;96633.50;;;13.54;42.20
9439;BME280;5176;42.622;25.386;2023-04-06T11:50:47;96637.41;;;13.60;43.28
9439;BME280;5176;42.622;25.386;2023-04-06T11:53:16;96632.75;;;13.73;42.03
9439;BME280;5176;42.622;25.386;2023-04-06T11:55:47;96625.81;;;13.72;41.00
9439;BME280;5176;42.622;25.386;2023-04-06T11:58:17;96627.66;;;13.51;41.22
9439;BME280;5176;42.622;25.386;2023-04-06T12:00:46;96630.41;;;13.49;42.13
9439;BME280;5176;42.622;25.386;2023-04-06T12:03:15;96636.28;;;13.32;42.23
9439;BME280;5176;42.622;25.386;2023-04-06T12:05:44;96633.81;;;13.19;41.79
9439;BME280;5176;42.622;25.386;2023-04-06T12:08:14;96636.13;;;13.13;42.46
9439;BME280;5176;42.622;25.386;2023-04-06T12:10:44;96644.44;;;12.97;42.69
9439;BME280;5176;42.622;25.386;2023-04-06T12:13:14;96635.00;;;12.94;42.25
9439;BME280;5176;42.622;25.386;2023-04-06T12:15:44;96638.97;;;12.89;42.87
9439;BME280;5176;42.622;25.386;2023-04-06T12:18:13;96639.13;;;12.87;43.35
9439;BME280;5176;42.622;25.386;2023-04-06T12:20:42;96644.38;;;12.87;43.05
9439;BME280;5176;42.622;25.386;2023-04-06T12:23:10;96620.50;;;12.79;42.62
9439;BME280;5176;42.622;25.386;2023-04-06T12:25:39;96641.16;;;12.83;42.71
9439;BME280;5176;42.622;25.386;2023-04-06T12:28:08;96651.09;;;12.80;40.97
9439;BME280;5176;42.622;25.386;2023-04-06T12:30:38;96648.09;;;12.85;42.39
9439;BME280;5176;42.622;25.386;2023-04-06T12:33:07;96640.00;;;12.76;41.70
9439;BME280;5176;42.622;25.386;2023-04-06T12:35:37;96633.69;;;12.68;41.58
9439;BME280;5176;42.622;25.386;2023-04-06T12:38:06;96636.47;;;12.66;43.16
9439;BME280;5176;42.622;25.386;2023-04-06T12:40:37;96641.22;;;12.72;42.79
9439;BME280;5176;42.622;25.386;2023-04-06T12:43:06;96635.03;;;12.62;42.24
9439;BME280;5176;42.622;25.386;2023-04-06T12:45:35;96634.75;;;12.44;42.75
9439;BME280;5176;42.622;25.386;2023-04-06T12:48:06;96627.06;;;12.52;42.25
9439;BME280;5176;42.622;25.386;2023-04-06T12:50:35;96639.13;;;12.55;41.81
9439;BME280;5176;42.622;25.386;2023-04-06T12:53:04;96627.28;;;12.49;42.82
9439;BME280;5176;42.622;25.386;2023-04-06T12:55:32;96618.34;;;12.52;43.35
9439;BME280;5176;42.622;25.386;2023-04-06T12:58:02;96626.59;;;12.47;42.77
9439;BME280;5176;42.622;25.386;2023-04-06T13:00:31;96618.25;;;12.42;42.59
9439;BME280;5176;42.622;25.386;2023-04-06T13:03:00;96630.25;;;12.24;43.69
9439;BME280;5176;42.622;25.386;2023-04-06T13:05:30;96610.22;;;12.00;44.02
9439;BME280;5176;42.622;25.386;2023-04-06T13:07:59;96604.28;;;11.87;44.74
9439;BME280;5176;42.622;25.386;2023-04-06T13:10:28;96606.88;;;11.76;43.66
9439;BME280;5176;42.622;25.386;2023-04-06T13:12:57;96607.81;;;11.75;44.85
9439;BME280;5176;42.622;25.386;2023-04-06T13:15:25;96604.28;;;11.87;44.33
9439;BME280;5176;42.622;25.386;2023-04-06T13:17:54;96608.09;;;11.94;42.67
9439;BME280;5176;42.622;25.386;2023-04-06T13:20:23;96597.69;;;12.04;44.33
9439;BME280;5176;42.622;25.386;2023-04-06T13:22:56;96605.03;;;12.21;43.63
9439;BME280;5176;42.622;25.386;2023-04-06T13:25:26;96595.13;;;12.25;43.06
9439;BME280;5176;42.622;25.386;2023-04-06T13:27:55;96598.72;;;12.24;42.33
9439;BME280;5176;42.622;25.386;2023-04-06T13:30:24;96602.88;;;12.38;43.29